sensor_id;sensor_type;location;lat;lon;timestamp;P1;P2;P0
47741;PMS5003;33504;52.066;6.096;2022-11-27T00:02:17;18;17;
47741;PMS5003;33504;52.066;6.096;2022-11-27T00:04:44;23;19;
47741;PMS5003;33504;52.066;6.096;2022-11-27T00:07:11;22;20;
47741;PMS5003;33504;52.066;6.096;2022-11-27T00:09:38;23;19;
47741;PMS5003;33504;52.066;6.096;2022-11-27T00:12:05;16;15;
47741;PMS5003;33504;52.066;6.096;2022-11-27T00:14:32;20;19;
47741;PMS5003;33504;52.066;6.096;2022-11-27T00:17:00;18;17;
47741;PMS5003;33504;52.066;6.096;2022-11-27T00:19:27;21;19;
47741;PMS5003;33504;52.066;6.096;2022-11-27T00:21:54;23;22;
47741;PMS5003;33504;52.066;6.096;2022-11-27T00:24:21;19;17;
47741;PMS5003;33504;52.066;6.096;2022-11-27T00:26:48;18;17;
47741;PMS5003;33504;52.066;6.096;2022-11-27T00:29:15;19;17;
47741;PMS5003;33504;52.066;6.096;2022-11-27T00:31:42;20;19;
47741;PMS5003;33504;52.066;6.096;2022-11-27T00:34:09;17;17;
47741;PMS5003;33504;52.066;6.096;2022-11-27T00:36:37;21;19;
47741;PMS5003;33504;52.066;6.096;2022-11-27T00:39:04;23;23;
47741;PMS5003;33504;52.066;6.096;2022-11-27T00:41:32;21;20;
47741;PMS5003;33504;52.066;6.096;2022-11-27T00:43:59;20;18;
47741;PMS5003;33504;52.066;6.096;2022-11-27T00:46:28;20;19;
47741;PMS5003;33504;52.066;6.096;2022-11-27T00:48:56;22;19;
47741;PMS5003;33504;52.066;6.096;2022-11-27T00:51:25;29;24;
47741;PMS5003;33504;52.066;6.096;2022-11-27T00:53:54;25;24;
47741;PMS5003;33504;52.066;6.096;2022-11-27T00:56:21;21;19;
47741;PMS5003;33504;52.066;6.096;2022-11-27T00:58:50;21;19;
47741;PMS5003;33504;52.066;6.096;2022-11-27T01:01:19;28;22;
47741;PMS5003;33504;52.066;6.096;2022-11-27T01:03:48;23;22;
47741;PMS5003;33504;52.066;6.096;2022-11-27T01:06:16;21;20;
47741;PMS5003;33504;52.066;6.096;2022-11-27T01:08:44;22;21;
47741;PMS5003;33504;52.066;6.096;2022-11-27T01:11:13;26;25;
47741;PMS5003;33504;52.066;6.096;2022-11-27T01:13:41;23;20;
47741;PMS5003;33504;52.066;6.096;2022-11-27T01:16:09;20;19;
47741;PMS5003;33504;52.066;6.096;2022-11-27T01:18:38;27;25;
47741;PMS5003;33504;52.066;6.096;2022-11-27T01:21:07;27;25;
47741;PMS5003;33504;52.066;6.096;2022-11-27T01:23:35;19;19;
47741;PMS5003;33504;52.066;6.096;2022-11-27T01:26:04;23;23;
47741;PMS5003;33504;52.066;6.096;2022-11-27T01:28:32;18;18;
47741;PMS5003;33504;52.066;6.096;2022-11-27T01:31:03;19;18;
47741;PMS5003;33504;52.066;6.096;2022-11-27T01:33:30;22;21;
47741;PMS5003;33504;52.066;6.096;2022-11-27T01:35:58;19;18;
47741;PMS5003;33504;52.066;6.096;2022-11-27T01:38:27;19;18;
47741;PMS5003;33504;52.066;6.096;2022-11-27T01:40:56;22;20;
47741;PMS5003;33504;52.066;6.096;2022-11-27T01:43:40;18;17;
47741;PMS5003;33504;52.066;6.096;2022-11-27T01:46:11;21;21;
47741;PMS5003;33504;52.066;6.096;2022-11-27T01:48:46;23;21;
47741;PMS5003;33504;52.066;6.096;2022-11-27T01:51:14;22;22;
47741;PMS5003;33504;52.066;6.096;2022-11-27T01:53:41;19;18;
47741;PMS5003;33504;52.066;6.096;2022-11-27T01:56:09;22;20;
47741;PMS5003;33504;52.066;6.096;2022-11-27T01:58:36;20;20;
47741;PMS5003;33504;52.066;6.096;2022-11-27T02:01:05;18;18;
47741;PMS5003;33504;52.066;6.096;2022-11-27T02:03:32;21;20;
47741;PMS5003;33504;52.066;6.096;2022-11-27T02:06:00;24;22;
47741;PMS5003;33504;52.066;6.096;2022-11-27T02:08:27;24;23;
47741;PMS5003;33504;52.066;6.096;2022-11-27T02:10:56;20;19;
47741;PMS5003;33504;52.066;6.096;2022-11-27T02:13:29;23;21;
47741;PMS5003;33504;52.066;6.096;2022-11-27T02:16:04;20;19;
47741;PMS5003;33504;52.066;6.096;2022-11-27T02:18:39;18;17;
47741;PMS5003;33504;52.066;6.096;2022-11-27T02:21:14;18;17;
47741;PMS5003;33504;52.066;6.096;2022-11-27T02:23:57;19;17;
47741;PMS5003;33504;52.066;6.096;2022-11-27T02:27:19;18;17;
47741;PMS5003;33504;52.066;6.096;2022-11-27T02:29:58;19;18;
47741;PMS5003;33504;52.066;6.096;2022-11-27T02:32:28;16;15;
47741;PMS5003;33504;52.066;6.096;2022-11-27T02:35:02;19;17;
47741;PMS5003;33504;52.066;6.096;2022-11-27T02:37:38;18;17;
47741;PMS5003;33504;52.066;6.096;2022-11-27T02:40:12;18;15;
47741;PMS5003;33504;52.066;6.096;2022-11-27T02:42:47;18;18;
47741;PMS5003;33504;52.066;6.096;2022-11-27T02:45:17;14;13;
47741;PMS5003;33504;52.066;6.096;2022-11-27T02:47:49;15;14;
47741;PMS5003;33504;52.066;6.096;2022-11-27T02:50:17;17;16;
47741;PMS5003;33504;52.066;6.096;2022-11-27T02:52:48;16;15;
47741;PMS5003;33504;52.066;6.096;2022-11-27T02:55:19;18;17;
47741;PMS5003;33504;52.066;6.096;2022-11-27T02:57:51;15;13;
47741;PMS5003;33504;52.066;6.096;2022-11-27T03:00:21;16;15;
47741;PMS5003;33504;52.066;6.096;2022-11-27T03:02:49;17;16;
47741;PMS5003;33504;52.066;6.096;2022-11-27T03:05:20;17;13;
47741;PMS5003;33504;52.066;6.096;2022-11-27T03:07:52;15;15;
47741;PMS5003;33504;52.066;6.096;2022-11-27T03:10:26;14;13;
47741;PMS5003;33504;52.066;6.096;2022-11-27T03:12:59;14;12;
47741;PMS5003;33504;52.066;6.096;2022-11-27T03:15:29;15;13;
47741;PMS5003;33504;52.066;6.096;2022-11-27T03:18:05;14;14;
47741;PMS5003;33504;52.066;6.096;2022-11-27T03:20:41;13;12;
47741;PMS5003;33504;52.066;6.096;2022-11-27T03:23:12;13;12;
47741;PMS5003;33504;52.066;6.096;2022-11-27T03:25:39;15;14;
47741;PMS5003;33504;52.066;6.096;2022-11-27T03:28:07;14;13;
47741;PMS5003;33504;52.066;6.096;2022-11-27T03:30:36;15;14;
47741;PMS5003;33504;52.066;6.096;2022-11-27T03:33:02;12;12;
47741;PMS5003;33504;52.066;6.096;2022-11-27T03:35:30;14;11;
47741;PMS5003;33504;52.066;6.096;2022-11-27T03:37:57;16;15;
47741;PMS5003;33504;52.066;6.096;2022-11-27T03:40:26;14;12;
47741;PMS5003;33504;52.066;6.096;2022-11-27T03:43:01;17;14;
47741;PMS5003;33504;52.066;6.096;2022-11-27T03:45:33;12;11;
47741;PMS5003;33504;52.066;6.096;2022-11-27T03:48:11;15;14;
47741;PMS5003;33504;52.066;6.096;2022-11-27T03:50:52;10;9;
47741;PMS5003;33504;52.066;6.096;2022-11-27T03:53:30;16;14;
47741;PMS5003;33504;52.066;6.096;2022-11-27T03:56:05;13;11;
47741;PMS5003;33504;52.066;6.096;2022-11-27T03:58:40;12;12;
47741;PMS5003;33504;52.066;6.096;2022-11-27T04:01:12;14;11;
47741;PMS5003;33504;52.066;6.096;2022-11-27T04:03:43;10;9;
47741;PMS5003;33504;52.066;6.096;2022-11-27T04:06:10;11;10;
47741;PMS5003;33504;52.066;6.096;2022-11-27T04:08:37;13;11;
47741;PMS5003;33504;52.066;6.096;2022-11-27T04:11:05;14;14;
47741;PMS5003;33504;52.066;6.096;2022-11-27T04:13:32;13;11;
47741;PMS5003;33504;52.066;6.096;2022-11-27T04:15:59;10;10;
47741;PMS5003;33504;52.066;6.096;2022-11-27T04:18:27;10;9;
47741;PMS5003;33504;52.066;6.096;2022-11-27T04:20:55;15;15;
47741;PMS5003;33504;52.066;6.096;2022-11-27T04:23:22;11;9;
47741;PMS5003;33504;52.066;6.096;2022-11-27T04:25:49;13;12;
47741;PMS5003;33504;52.066;6.096;2022-11-27T04:28:16;13;11;
47741;PMS5003;33504;52.066;6.096;2022-11-27T04:30:44;11;9;
47741;PMS5003;33504;52.066;6.096;2022-11-27T04:33:17;11;11;
47741;PMS5003;33504;52.066;6.096;2022-11-27T04:35:45;9;9;
47741;PMS5003;33504;52.066;6.096;2022-11-27T04:38:12;9;8;
47741;PMS5003;33504;52.066;6.096;2022-11-27T04:40:40;12;11;
47741;PMS5003;33504;52.066;6.096;2022-11-27T04:43:07;10;9;
47741;PMS5003;33504;52.066;6.096;2022-11-27T04:45:34;13;11;
47741;PMS5003;33504;52.066;6.096;2022-11-27T04:48:01;14;13;
47741;PMS5003;33504;52.066;6.096;2022-11-27T04:50:28;11;10;
47741;PMS5003;33504;52.066;6.096;2022-11-27T04:52:55;13;11;
47741;PMS5003;33504;52.066;6.096;2022-11-27T04:55:23;14;12;
47741;PMS5003;33504;52.066;6.096;2022-11-27T04:57:50;11;10;
47741;PMS5003;33504;52.066;6.096;2022-11-27T05:00:17;15;12;
47741;PMS5003;33504;52.066;6.096;2022-11-27T05:02:46;12;11;
47741;PMS5003;33504;52.066;6.096;2022-11-27T05:05:13;11;11;
47741;PMS5003;33504;52.066;6.096;2022-11-27T05:07:40;12;11;
47741;PMS5003;33504;52.066;6.096;2022-11-27T05:10:08;14;14;
47741;PMS5003;33504;52.066;6.096;2022-11-27T05:12:35;13;12;
47741;PMS5003;33504;52.066;6.096;2022-11-27T05:15:02;16;14;
47741;PMS5003;33504;52.066;6.096;2022-11-27T05:17:30;10;10;
47741;PMS5003;33504;52.066;6.096;2022-11-27T05:19:58;13;12;
47741;PMS5003;33504;52.066;6.096;2022-11-27T05:22:25;17;16;
47741;PMS5003;33504;52.066;6.096;2022-11-27T05:24:52;13;13;
47741;PMS5003;33504;52.066;6.096;2022-11-27T05:27:19;11;11;
47741;PMS5003;33504;52.066;6.096;2022-11-27T05:29:46;10;10;
47741;PMS5003;33504;52.066;6.096;2022-11-27T05:32:14;13;13;
47741;PMS5003;33504;52.066;6.096;2022-11-27T05:34:41;15;12;
47741;PMS5003;33504;52.066;6.096;2022-11-27T05:37:08;15;14;
47741;PMS5003;33504;52.066;6.096;2022-11-27T05:39:36;16;15;
47741;PMS5003;33504;52.066;6.096;2022-11-27T05:42:03;14;13;
47741;PMS5003;33504;52.066;6.096;2022-11-27T05:44:31;16;16;
47741;PMS5003;33504;52.066;6.096;2022-11-27T05:46:58;16;13;
47741;PMS5003;33504;52.066;6.096;2022-11-27T05:49:26;13;12;
47741;PMS5003;33504;52.066;6.096;2022-11-27T05:51:53;13;13;
47741;PMS5003;33504;52.066;6.096;2022-11-27T05:54:19;15;14;
47741;PMS5003;33504;52.066;6.096;2022-11-27T05:56:47;15;14;
47741;PMS5003;33504;52.066;6.096;2022-11-27T05:59:14;13;13;
47741;PMS5003;33504;52.066;6.096;2022-11-27T06:01:41;16;15;
47741;PMS5003;33504;52.066;6.096;2022-11-27T06:04:08;13;12;
47741;PMS5003;33504;52.066;6.096;2022-11-27T06:06:35;13;12;
47741;PMS5003;33504;52.066;6.096;2022-11-27T06:09:02;14;13;
47741;PMS5003;33504;52.066;6.096;2022-11-27T06:11:29;12;12;
47741;PMS5003;33504;52.066;6.096;2022-11-27T06:13:56;14;14;
47741;PMS5003;33504;52.066;6.096;2022-11-27T06:16:23;18;14;
47741;PMS5003;33504;52.066;6.096;2022-11-27T06:18:51;18;16;
47741;PMS5003;33504;52.066;6.096;2022-11-27T06:21:20;14;13;
47741;PMS5003;33504;52.066;6.096;2022-11-27T06:23:51;16;14;
47741;PMS5003;33504;52.066;6.096;2022-11-27T06:26:19;19;17;
47741;PMS5003;33504;52.066;6.096;2022-11-27T06:28:48;16;15;
47741;PMS5003;33504;52.066;6.096;2022-11-27T06:31:17;18;17;
47741;PMS5003;33504;52.066;6.096;2022-11-27T06:33:46;18;16;
47741;PMS5003;33504;52.066;6.096;2022-11-27T06:36:15;14;14;
47741;PMS5003;33504;52.066;6.096;2022-11-27T06:38:43;16;15;
47741;PMS5003;33504;52.066;6.096;2022-11-27T06:41:12;14;13;
47741;PMS5003;33504;52.066;6.096;2022-11-27T06:43:46;22;20;
47741;PMS5003;33504;52.066;6.096;2022-11-27T06:46:14;16;15;
47741;PMS5003;33504;52.066;6.096;2022-11-27T06:48:44;15;15;
47741;PMS5003;33504;52.066;6.096;2022-11-27T06:51:19;20;17;
47741;PMS5003;33504;52.066;6.096;2022-11-27T06:53:53;19;16;
47741;PMS5003;33504;52.066;6.096;2022-11-27T06:56:21;20;19;
47741;PMS5003;33504;52.066;6.096;2022-11-27T06:58:50;21;20;
47741;PMS5003;33504;52.066;6.096;2022-11-27T07:01:19;21;17;
47741;PMS5003;33504;52.066;6.096;2022-11-27T07:03:52;16;15;
47741;PMS5003;33504;52.066;6.096;2022-11-27T07:06:20;19;17;
47741;PMS5003;33504;52.066;6.096;2022-11-27T07:08:50;20;17;
47741;PMS5003;33504;52.066;6.096;2022-11-27T07:11:18;19;19;
47741;PMS5003;33504;52.066;6.096;2022-11-27T07:13:47;18;17;
47741;PMS5003;33504;52.066;6.096;2022-11-27T07:16:16;20;17;
47741;PMS5003;33504;52.066;6.096;2022-11-27T07:18:45;18;17;
47741;PMS5003;33504;52.066;6.096;2022-11-27T07:21:20;17;15;
47741;PMS5003;33504;52.066;6.096;2022-11-27T07:23:47;21;19;
47741;PMS5003;33504;52.066;6.096;2022-11-27T07:26:15;18;18;
47741;PMS5003;33504;52.066;6.096;2022-11-27T07:28:44;22;19;
47741;PMS5003;33504;52.066;6.096;2022-11-27T07:31:13;20;20;
47741;PMS5003;33504;52.066;6.096;2022-11-27T07:33:42;23;21;
47741;PMS5003;33504;52.066;6.096;2022-11-27T07:36:11;20;16;
47741;PMS5003;33504;52.066;6.096;2022-11-27T07:38:41;19;18;
47741;PMS5003;33504;52.066;6.096;2022-11-27T07:41:09;17;17;
47741;PMS5003;33504;52.066;6.096;2022-11-27T07:43:42;18;18;
47741;PMS5003;33504;52.066;6.096;2022-11-27T07:46:10;19;19;
47741;PMS5003;33504;52.066;6.096;2022-11-27T07:48:39;23;23;
47741;PMS5003;33504;52.066;6.096;2022-11-27T07:51:07;24;21;
47741;PMS5003;33504;52.066;6.096;2022-11-27T07:53:35;24;22;
47741;PMS5003;33504;52.066;6.096;2022-11-27T07:56:08;27;26;
47741;PMS5003;33504;52.066;6.096;2022-11-27T07:58:37;23;21;
47741;PMS5003;33504;52.066;6.096;2022-11-27T08:01:05;18;17;
47741;PMS5003;33504;52.066;6.096;2022-11-27T08:03:33;16;16;
47741;PMS5003;33504;52.066;6.096;2022-11-27T08:06:12;17;17;
47741;PMS5003;33504;52.066;6.096;2022-11-27T08:08:41;21;18;
47741;PMS5003;33504;52.066;6.096;2022-11-27T08:11:20;23;22;
47741;PMS5003;33504;52.066;6.096;2022-11-27T08:13:55;19;19;
47741;PMS5003;33504;52.066;6.096;2022-11-27T08:16:23;28;24;
47741;PMS5003;33504;52.066;6.096;2022-11-27T08:18:51;19;19;
47741;PMS5003;33504;52.066;6.096;2022-11-27T08:21:19;17;17;
47741;PMS5003;33504;52.066;6.096;2022-11-27T08:23:52;20;20;
47741;PMS5003;33504;52.066;6.096;2022-11-27T08:26:19;23;21;
47741;PMS5003;33504;52.066;6.096;2022-11-27T08:28:46;22;20;
47741;PMS5003;33504;52.066;6.096;2022-11-27T08:31:14;27;25;
47741;PMS5003;33504;52.066;6.096;2022-11-27T08:33:41;27;23;
47741;PMS5003;33504;52.066;6.096;2022-11-27T08:36:09;24;21;
47741;PMS5003;33504;52.066;6.096;2022-11-27T08:38:36;21;20;
47741;PMS5003;33504;52.066;6.096;2022-11-27T08:41:04;22;21;
47741;PMS5003;33504;52.066;6.096;2022-11-27T08:43:33;21;21;
47741;PMS5003;33504;52.066;6.096;2022-11-27T08:46:02;22;20;
47741;PMS5003;33504;52.066;6.096;2022-11-27T08:48:30;28;25;
47741;PMS5003;33504;52.066;6.096;2022-11-27T08:51:04;22;21;
47741;PMS5003;33504;52.066;6.096;2022-11-27T08:53:34;21;20;
47741;PMS5003;33504;52.066;6.096;2022-11-27T08:56:04;20;20;
47741;PMS5003;33504;52.066;6.096;2022-11-27T08:58:33;21;19;
47741;PMS5003;33504;52.066;6.096;2022-11-27T09:01:07;18;16;
47741;PMS5003;33504;52.066;6.096;2022-11-27T09:03:41;22;19;
47741;PMS5003;33504;52.066;6.096;2022-11-27T09:06:14;22;19;
47741;PMS5003;33504;52.066;6.096;2022-11-27T09:08:43;25;24;
47741;PMS5003;33504;52.066;6.096;2022-11-27T09:11:12;20;19;
47741;PMS5003;33504;52.066;6.096;2022-11-27T09:13:41;20;19;
47741;PMS5003;33504;52.066;6.096;2022-11-27T09:16:16;23;21;
47741;PMS5003;33504;52.066;6.096;2022-11-27T09:18:45;17;16;
47741;PMS5003;33504;52.066;6.096;2022-11-27T09:21:14;25;22;
47741;PMS5003;33504;52.066;6.096;2022-11-27T09:23:44;23;20;
47741;PMS5003;33504;52.066;6.096;2022-11-27T09:26:12;22;20;
47741;PMS5003;33504;52.066;6.096;2022-11-27T09:28:41;25;23;
47741;PMS5003;33504;52.066;6.096;2022-11-27T09:31:14;19;19;
47741;PMS5003;33504;52.066;6.096;2022-11-27T09:33:43;24;21;
47741;PMS5003;33504;52.066;6.096;2022-11-27T09:36:11;24;22;
47741;PMS5003;33504;52.066;6.096;2022-11-27T09:38:40;24;22;
47741;PMS5003;33504;52.066;6.096;2022-11-27T09:41:16;18;17;
47741;PMS5003;33504;52.066;6.096;2022-11-27T09:44:02;21;20;
47741;PMS5003;33504;52.066;6.096;2022-11-27T09:46:42;26;24;
47741;PMS5003;33504;52.066;6.096;2022-11-27T09:49:12;16;16;
47741;PMS5003;33504;52.066;6.096;2022-11-27T09:51:44;22;19;
47741;PMS5003;33504;52.066;6.096;2022-11-27T09:54:18;20;20;
47741;PMS5003;33504;52.066;6.096;2022-11-27T09:56:54;22;20;
47741;PMS5003;33504;52.066;6.096;2022-11-27T09:59:29;21;20;
47741;PMS5003;33504;52.066;6.096;2022-11-27T10:02:11;18;18;
47741;PMS5003;33504;52.066;6.096;2022-11-27T10:04:48;18;18;
47741;PMS5003;33504;52.066;6.096;2022-11-27T10:07:30;21;20;
47741;PMS5003;33504;52.066;6.096;2022-11-27T10:10:08;28;26;
47741;PMS5003;33504;52.066;6.096;2022-11-27T10:12:49;25;24;
47741;PMS5003;33504;52.066;6.096;2022-11-27T10:15:31;21;20;
47741;PMS5003;33504;52.066;6.096;2022-11-27T10:18:09;24;23;
47741;PMS5003;33504;52.066;6.096;2022-11-27T10:20:42;22;22;
47741;PMS5003;33504;52.066;6.096;2022-11-27T10:23:17;24;21;
47741;PMS5003;33504;52.066;6.096;2022-11-27T10:25:53;24;21;
47741;PMS5003;33504;52.066;6.096;2022-11-27T10:28:26;24;22;
47741;PMS5003;33504;52.066;6.096;2022-11-27T10:30:59;22;22;
47741;PMS5003;33504;52.066;6.096;2022-11-27T10:33:37;23;22;
47741;PMS5003;33504;52.066;6.096;2022-11-27T10:36:14;25;24;
47741;PMS5003;33504;52.066;6.096;2022-11-27T10:38:43;25;22;
47741;PMS5003;33504;52.066;6.096;2022-11-27T10:41:15;28;22;
47741;PMS5003;33504;52.066;6.096;2022-11-27T10:43:48;19;19;
47741;PMS5003;33504;52.066;6.096;2022-11-27T10:46:21;20;20;
47741;PMS5003;33504;52.066;6.096;2022-11-27T10:48:58;26;24;
47741;PMS5003;33504;52.066;6.096;2022-11-27T10:51:28;25;22;
47741;PMS5003;33504;52.066;6.096;2022-11-27T10:53:59;25;25;
47741;PMS5003;33504;52.066;6.096;2022-11-27T10:56:37;26;26;
47741;PMS5003;33504;52.066;6.096;2022-11-27T10:59:16;26;24;
47741;PMS5003;33504;52.066;6.096;2022-11-27T11:01:48;25;23;
47741;PMS5003;33504;52.066;6.096;2022-11-27T11:04:19;21;21;
47741;PMS5003;33504;52.066;6.096;2022-11-27T11:06:48;21;20;
47741;PMS5003;33504;52.066;6.096;2022-11-27T11:09:18;21;19;
47741;PMS5003;33504;52.066;6.096;2022-11-27T11:11:54;20;19;
47741;PMS5003;33504;52.066;6.096;2022-11-27T11:14:32;24;21;
47741;PMS5003;33504;52.066;6.096;2022-11-27T11:17:00;17;16;
47741;PMS5003;33504;52.066;6.096;2022-11-27T11:19:40;22;21;
47741;PMS5003;33504;52.066;6.096;2022-11-27T11:22:09;21;19;
47741;PMS5003;33504;52.066;6.096;2022-11-27T11:24:43;20;20;
47741;PMS5003;33504;52.066;6.096;2022-11-27T11:27:19;22;20;
47741;PMS5003;33504;52.066;6.096;2022-11-27T11:29:52;39;35;
47741;PMS5003;33504;52.066;6.096;2022-11-27T11:32:22;50;46;
47741;PMS5003;33504;52.066;6.096;2022-11-27T11:34:54;41;39;
47741;PMS5003;33504;52.066;6.096;2022-11-27T11:37:30;37;34;
47741;PMS5003;33504;52.066;6.096;2022-11-27T11:40:00;22;21;
47741;PMS5003;33504;52.066;6.096;2022-11-27T11:42:49;22;20;
47741;PMS5003;33504;52.066;6.096;2022-11-27T11:45:19;22;20;
47741;PMS5003;33504;52.066;6.096;2022-11-27T11:47:49;19;18;
47741;PMS5003;33504;52.066;6.096;2022-11-27T11:50:24;24;23;
47741;PMS5003;33504;52.066;6.096;2022-11-27T11:53:04;18;18;
47741;PMS5003;33504;52.066;6.096;2022-11-27T11:55:41;18;16;
47741;PMS5003;33504;52.066;6.096;2022-11-27T11:58:20;20;19;
47741;PMS5003;33504;52.066;6.096;2022-11-27T12:01:04;21;20;
47741;PMS5003;33504;52.066;6.096;2022-11-27T12:03:52;18;18;
47741;PMS5003;33504;52.066;6.096;2022-11-27T12:06:30;20;18;
47741;PMS5003;33504;52.066;6.096;2022-11-27T12:09:09;21;19;
47741;PMS5003;33504;52.066;6.096;2022-11-27T12:11:50;19;18;
47741;PMS5003;33504;52.066;6.096;2022-11-27T12:14:34;17;16;
47741;PMS5003;33504;52.066;6.096;2022-11-27T12:17:13;20;20;
47741;PMS5003;33504;52.066;6.096;2022-11-27T12:19:59;20;19;
47741;PMS5003;33504;52.066;6.096;2022-11-27T12:22:45;24;23;
47741;PMS5003;33504;52.066;6.096;2022-11-27T12:25:35;23;21;
47741;PMS5003;33504;52.066;6.096;2022-11-27T12:28:17;45;41;
47741;PMS5003;33504;52.066;6.096;2022-11-27T12:31:03;21;21;
47741;PMS5003;33504;52.066;6.096;2022-11-27T12:33:46;17;17;
47741;PMS5003;33504;52.066;6.096;2022-11-27T12:36:26;19;17;
47741;PMS5003;33504;52.066;6.096;2022-11-27T12:39:09;22;20;
47741;PMS5003;33504;52.066;6.096;2022-11-27T12:41:50;21;20;
47741;PMS5003;33504;52.066;6.096;2022-11-27T12:44:27;20;19;
47741;PMS5003;33504;52.066;6.096;2022-11-27T12:47:02;18;18;
47741;PMS5003;33504;52.066;6.096;2022-11-27T12:49:40;21;20;
47741;PMS5003;33504;52.066;6.096;2022-11-27T12:52:17;18;18;
47741;PMS5003;33504;52.066;6.096;2022-11-27T12:54:49;20;20;
47741;PMS5003;33504;52.066;6.096;2022-11-27T12:57:29;16;16;
47741;PMS5003;33504;52.066;6.096;2022-11-27T13:00:13;21;20;
47741;PMS5003;33504;52.066;6.096;2022-11-27T13:04:59;24;23;
47741;PMS5003;33504;52.066;6.096;2022-11-27T13:08:29;24;23;
47741;PMS5003;33504;52.066;6.096;2022-11-27T13:10:57;23;21;
47741;PMS5003;33504;52.066;6.096;2022-11-27T13:13:00;19;18;
47741;PMS5003;33504;52.066;6.096;2022-11-27T13:13:32;19;18;
47741;PMS5003;33504;52.066;6.096;2022-11-27T13:26:51;18;17;
47741;PMS5003;33504;52.066;6.096;2022-11-27T13:30:54;19;18;
47741;PMS5003;33504;52.066;6.096;2022-11-27T13:32:29;17;17;
47741;PMS5003;33504;52.066;6.096;2022-11-27T13:36:16;19;18;
47741;PMS5003;33504;52.066;6.096;2022-11-27T13:36:53;19;18;
47741;PMS5003;33504;52.066;6.096;2022-11-27T13:37:35;19;18;
47741;PMS5003;33504;52.066;6.096;2022-11-27T13:39:47;21;21;
47741;PMS5003;33504;52.066;6.096;2022-11-27T13:41:30;21;20;
47741;PMS5003;33504;52.066;6.096;2022-11-27T13:45:23;22;20;
47741;PMS5003;33504;52.066;6.096;2022-11-27T13:51:27;17;15;
47741;PMS5003;33504;52.066;6.096;2022-11-27T13:59:22;19;17;
47741;PMS5003;33504;52.066;6.096;2022-11-27T14:07:16;19;18;
47741;PMS5003;33504;52.066;6.096;2022-11-27T14:12:39;17;16;
47741;PMS5003;33504;52.066;6.096;2022-11-27T14:14:01;17;16;
47741;PMS5003;33504;52.066;6.096;2022-11-27T14:18:50;20;18;
47741;PMS5003;33504;52.066;6.096;2022-11-27T14:20:18;20;18;
47741;PMS5003;33504;52.066;6.096;2022-11-27T14:21:22;21;18;
47741;PMS5003;33504;52.066;6.096;2022-11-27T14:22:58;21;18;
47741;PMS5003;33504;52.066;6.096;2022-11-27T14:29:21;21;18;
47741;PMS5003;33504;52.066;6.096;2022-11-27T14:32:48;21;20;
47741;PMS5003;33504;52.066;6.096;2022-11-27T14:33:47;21;20;
47741;PMS5003;33504;52.066;6.096;2022-11-27T14:36:04;22;20;
47741;PMS5003;33504;52.066;6.096;2022-11-27T14:40:48;21;18;
47741;PMS5003;33504;52.066;6.096;2022-11-27T14:44:00;19;17;
47741;PMS5003;33504;52.066;6.096;2022-11-27T14:44:31;19;17;
47741;PMS5003;33504;52.066;6.096;2022-11-27T14:46:22;18;17;
47741;PMS5003;33504;52.066;6.096;2022-11-27T14:47:15;18;17;
47741;PMS5003;33504;52.066;6.096;2022-11-27T14:51:14;18;17;
47741;PMS5003;33504;52.066;6.096;2022-11-27T14:53:42;17;17;
47741;PMS5003;33504;52.066;6.096;2022-11-27T14:54:10;17;17;
47741;PMS5003;33504;52.066;6.096;2022-11-27T14:55:35;18;18;
47741;PMS5003;33504;52.066;6.096;2022-11-27T14:56:25;18;17;
47741;PMS5003;33504;52.066;6.096;2022-11-27T14:59:20;18;17;
47741;PMS5003;33504;52.066;6.096;2022-11-27T15:00:48;18;16;
47741;PMS5003;33504;52.066;6.096;2022-11-27T15:01:58;18;16;
47741;PMS5003;33504;52.066;6.096;2022-11-27T15:02:38;17;16;
47741;PMS5003;33504;52.066;6.096;2022-11-27T15:04:27;17;17;
47741;PMS5003;33504;52.066;6.096;2022-11-27T15:06:48;18;18;
47741;PMS5003;33504;52.066;6.096;2022-11-27T15:11:05;21;20;
47741;PMS5003;33504;52.066;6.096;2022-11-27T15:19:35;18;17;
47741;PMS5003;33504;52.066;6.096;2022-11-27T15:20:36;18;17;
47741;PMS5003;33504;52.066;6.096;2022-11-27T15:23:13;17;17;
47741;PMS5003;33504;52.066;6.096;2022-11-27T15:23:55;17;17;
47741;PMS5003;33504;52.066;6.096;2022-11-27T15:25:33;17;17;
47741;PMS5003;33504;52.066;6.096;2022-11-27T15:33:03;42;39;
47741;PMS5003;33504;52.066;6.096;2022-11-27T15:34:04;44;40;
47741;PMS5003;33504;52.066;6.096;2022-11-27T15:34:45;44;40;
47741;PMS5003;33504;52.066;6.096;2022-11-27T15:38:07;48;43;
47741;PMS5003;33504;52.066;6.096;2022-11-27T15:39:35;45;40;
47741;PMS5003;33504;52.066;6.096;2022-11-27T15:40:00;46;39;
47741;PMS5003;33504;52.066;6.096;2022-11-27T15:41:51;45;40;
47741;PMS5003;33504;52.066;6.096;2022-11-27T15:44:27;19;19;
47741;PMS5003;33504;52.066;6.096;2022-11-27T15:46:56;17;17;
47741;PMS5003;33504;52.066;6.096;2022-11-27T15:49:30;22;21;
47741;PMS5003;33504;52.066;6.096;2022-11-27T15:51:57;37;34;
47741;PMS5003;33504;52.066;6.096;2022-11-27T15:54:23;29;28;
47741;PMS5003;33504;52.066;6.096;2022-11-27T15:56:50;20;20;
47741;PMS5003;33504;52.066;6.096;2022-11-27T15:59:21;30;28;
47741;PMS5003;33504;52.066;6.096;2022-11-27T16:01:49;26;24;
47741;PMS5003;33504;52.066;6.096;2022-11-27T16:04:20;28;26;
47741;PMS5003;33504;52.066;6.096;2022-11-27T16:06:47;46;44;
47741;PMS5003;33504;52.066;6.096;2022-11-27T16:09:13;25;24;
47741;PMS5003;33504;52.066;6.096;2022-11-27T16:11:39;26;24;
47741;PMS5003;33504;52.066;6.096;2022-11-27T16:14:07;31;29;
47741;PMS5003;33504;52.066;6.096;2022-11-27T16:16:35;39;38;
47741;PMS5003;33504;52.066;6.096;2022-11-27T16:19:02;29;28;
47741;PMS5003;33504;52.066;6.096;2022-11-27T16:21:31;24;21;
47741;PMS5003;33504;52.066;6.096;2022-11-27T16:24:01;24;23;
47741;PMS5003;33504;52.066;6.096;2022-11-27T16:26:31;38;36;
47741;PMS5003;33504;52.066;6.096;2022-11-27T16:29:04;20;20;
47741;PMS5003;33504;52.066;6.096;2022-11-27T16:31:33;37;35;
47741;PMS5003;33504;52.066;6.096;2022-11-27T16:34:06;20;19;
47741;PMS5003;33504;52.066;6.096;2022-11-27T16:36:33;39;38;
47741;PMS5003;33504;52.066;6.096;2022-11-27T16:39:06;32;31;
47741;PMS5003;33504;52.066;6.096;2022-11-27T16:41:33;36;34;
47741;PMS5003;33504;52.066;6.096;2022-11-27T16:44:07;23;22;
47741;PMS5003;33504;52.066;6.096;2022-11-27T16:46:37;30;28;
47741;PMS5003;33504;52.066;6.096;2022-11-27T16:49:05;35;33;
47741;PMS5003;33504;52.066;6.096;2022-11-27T16:51:33;36;35;
47741;PMS5003;33504;52.066;6.096;2022-11-27T16:54:04;35;34;
47741;PMS5003;33504;52.066;6.096;2022-11-27T16:56:38;34;33;
47741;PMS5003;33504;52.066;6.096;2022-11-27T16:59:11;30;28;
47741;PMS5003;33504;52.066;6.096;2022-11-27T17:01:39;31;30;
47741;PMS5003;33504;52.066;6.096;2022-11-27T17:04:09;23;22;
47741;PMS5003;33504;52.066;6.096;2022-11-27T17:06:41;60;57;